Time;durP1;ratioP1;P1;durP2;ratioP2;P2;SDS_P1;SDS_P2;PMS_P1;PMS_P2;Temp;Humidity;BMP_temperature;BMP_pressure;BME280_temperature;BME280_humidity;BME280_pressure;Samples;Min_cycle;Max_cycle;Signal;HPM_P1;HPM_P2
2023/06/14 00:00:50;;;;;;;12.00;8.60;;;;;;;13.16;84.63;100228.66;103010;1257;107460;-67
2023/06/14 00:03:36;;;;;;;;;;;;;;;13.14;84.70;100230.52;103012;1257;97804;-67
2023/06/14 00:06:03;;;;;;;9.70;7.70;;;;;;;13.13;84.76;100224.31;103008;1256;109589;-68
2023/06/14 00:08:30;;;;;;;10.50;8.20;;;;;;;13.12;84.96;100226.59;102952;1257;138524;-68
2023/06/14 00:10:57;;;;;;;10.10;7.60;;;;;;;13.15;85.26;100232.03;103024;1257;97782;-68
2023/06/14 00:13:25;;;;;;;12.00;8.30;;;;;;;13.16;85.11;100224.14;102894;1258;138908;-69
2023/06/14 00:15:54;;;;;;;13.10;7.90;;;;;;;13.15;85.13;100227.16;103060;1257;97773;-68
2023/06/14 00:18:23;;;;;;;10.40;7.60;;;;;;;13.14;85.07;100222.67;103005;1257;112875;-68
2023/06/14 00:20:52;;;;;;;10.60;7.40;;;;;;;13.14;85.08;100221.42;102887;1257;139598;-67
2023/06/14 00:23:19;;;;;;;10.00;7.40;;;;;;;13.13;85.00;100215.20;103038;1258;97664;-69
2023/06/14 00:25:46;;;;;;;10.10;7.10;;;;;;;13.12;84.93;100215.96;102909;1259;139283;-67
2023/06/14 00:28:14;;;;;;;11.70;7.80;;;;;;;13.11;85.05;100215.11;103003;1258;97696;-68
2023/06/14 00:30:44;;;;;;;9.90;7.80;;;;;;;13.10;85.25;100218.27;103035;1257;111098;-68
2023/06/14 00:33:11;;;;;;;9.40;7.60;;;;;;;13.11;85.26;100217.05;102795;1257;138551;-67
2023/06/14 00:35:39;;;;;;;10.70;8.40;;;;;;;13.09;85.00;100210.11;103093;1260;98326;-67
2023/06/14 00:38:06;;;;;;;12.40;7.90;;;;;;;13.10;85.26;100212.17;102940;1257;138546;-67
2023/06/14 00:40:34;;;;;;;13.90;8.40;;;;;;;13.09;85.18;100209.77;103049;1257;97799;-67
2023/06/14 00:43:01;;;;;;;11.60;8.00;;;;;;;13.09;85.19;100207.69;103047;1258;111426;-67
2023/06/14 00:45:28;;;;;;;10.80;7.80;;;;;;;13.10;85.26;100212.37;102926;1260;138556;-68
2023/06/14 00:47:56;;;;;;;8.90;7.30;;;;;;;13.10;85.27;100207.81;103094;1258;97795;-68
2023/06/14 00:50:25;;;;;;;11.30;8.20;;;;;;;13.09;85.14;100209.42;102914;1257;138459;-68
2023/06/14 00:52:52;;;;;;;11.30;8.20;;;;;;;13.08;85.17;100208.95;102928;1261;97815;-67
2023/06/14 00:55:19;;;;;;;9.60;7.60;;;;;;;13.08;85.31;100205.98;102893;1260;138643;-67
2023/06/14 00:57:47;;;;;;;11.70;8.20;;;;;;;13.08;85.25;100206.34;102925;1257;107034;-67
2023/06/14 01:00:16;;;;;;;10.80;8.20;;;;;;;13.07;85.24;100208.48;103716;1261;99462;-67
2023/06/14 01:02:43;;;;;;;12.40;8.50;;;;;;;13.06;85.16;100209.20;102967;1257;138614;-68
2023/06/14 01:05:12;;;;;;;10.10;8.50;;;;;;;13.06;85.24;100212.34;102976;1258;97795;-68
2023/06/14 01:07:51;;;;;;;13.60;8.20;;;;;;;13.06;85.30;100211.81;102881;1257;139956;-68
2023/06/14 01:10:33;;;;;;;13.30;8.00;;;;;;;13.08;85.38;100212.25;102954;1257;108266;-68
2023/06/14 01:13:06;;;;;;;11.30;7.70;;;;;;;13.10;85.13;100215.85;103058;1258;98370;-67
2023/06/14 01:15:35;;;;;;;10.90;8.20;;;;;;;13.11;85.24;100209.55;102935;1257;138253;-68
2023/06/14 01:18:03;;;;;;;11.00;8.10;;;;;;;13.10;85.22;100209.89;102944;1257;97910;-68
2023/06/14 01:20:32;;;;;;;11.30;8.00;;;;;;;13.11;85.18;100207.95;102894;1258;138572;-68
2023/06/14 01:23:01;;;;;;;11.40;8.20;;;;;;;13.13;85.39;100203.52;103003;1257;107960;-68
2023/06/14 01:25:31;;;;;;;9.60;7.50;;;;;;;13.13;85.05;100208.91;102948;1257;139369;-68
2023/06/14 01:28:01;;;;;;;11.70;7.70;;;;;;;13.14;85.14;100210.47;102974;1257;107932;-68
2023/06/14 01:30:30;;;;;;;10.70;8.00;;;;;;;13.16;85.09;100210.52;103024;1257;97794;-68
2023/06/14 01:33:00;;;;;;;11.60;8.00;;;;;;;13.17;84.97;100208.06;102909;1257;138559;-68
2023/06/14 01:35:28;;;;;;;11.20;8.20;;;;;;;13.18;84.83;100207.48;102995;1259;108045;-68
2023/06/14 01:37:56;;;;;;;12.30;7.70;;;;;;;13.18;84.78;100206.09;102939;1258;138893;-68
2023/06/14 01:40:25;;;;;;;12.10;7.60;;;;;;;13.18;84.81;100205.75;102896;1259;107091;-68
2023/06/14 01:42:52;;;;;;;10.90;7.20;;;;;;;13.17;84.61;100202.28;102985;1257;97913;-68
2023/06/14 01:45:21;;;;;;;11.20;7.30;;;;;;;13.14;84.53;100203.67;102823;1257;138578;-68
2023/06/14 01:47:50;;;;;;;11.50;7.30;;;;;;;13.14;84.63;100205.24;102939;1257;107396;-68
2023/06/14 01:50:19;;;;;;;8.30;6.70;;;;;;;13.13;84.54;100203.70;102860;1257;138687;-68
2023/06/14 01:52:47;;;;;;;10.50;6.80;;;;;;;13.12;84.53;100201.30;103052;1257;108644;-68
2023/06/14 01:55:17;;;;;;;7.90;7.00;;;;;;;13.12;84.69;100200.95;102868;1257;97851;-68
2023/06/14 01:57:45;;;;;;;8.80;6.70;;;;;;;13.11;84.59;100199.94;102995;1261;111440;-68
2023/06/14 02:00:15;;;;;;;8.80;6.80;;;;;;;13.10;84.47;100199.10;102981;1258;107232;-68
2023/06/14 02:02:43;;;;;;;10.10;7.50;;;;;;;13.07;84.48;100199.22;103408;1258;139171;-68
2023/06/14 02:05:11;;;;;;;11.20;7.50;;;;;;;13.07;84.67;100195.04;102958;1258;108181;-68
2023/06/14 02:07:40;;;;;;;10.10;7.20;;;;;;;13.06;84.62;100195.27;102878;1260;139493;-68
2023/06/14 02:10:09;;;;;;;10.40;7.30;;;;;;;13.04;84.56;100190.11;102818;1260;111438;-68
2023/06/14 02:12:36;;;;;;;9.60;7.40;;;;;;;13.02;84.48;100186.35;102991;1257;108314;-68
2023/06/14 02:15:05;;;;;;;10.10;7.80;;;;;;;13.02;84.88;100186.86;102776;1261;138635;-68
2023/06/14 02:17:33;;;;;;;10.50;7.90;;;;;;;13.05;85.15;100185.17;102792;1258;108271;-68
2023/06/14 02:20:08;;;;;;;9.90;7.30;;;;;;;13.07;85.21;100183.69;102886;1257;139066;-68
2023/06/14 02:22:35;;;;;;;8.10;6.90;;;;;;;13.08;85.50;100185.40;102980;1260;110529;-68
2023/06/14 02:25:02;;;;;;;10.00;7.50;;;;;;;13.11;85.50;100190.50;102884;1259;107588;-68
2023/06/14 02:27:30;;;;;;;8.90;7.30;;;;;;;13.13;85.58;100189.02;102843;1258;138459;-68
2023/06/14 02:29:57;;;;;;;9.70;7.40;;;;;;;13.14;85.42;100194.40;102916;1257;107643;-68
2023/06/14 02:32:26;;;;;;;8.90;7.40;;;;;;;13.15;85.45;100193.48;102840;1260;138988;-67
2023/06/14 02:34:53;;;;;;;12.70;9.80;;;;;;;13.15;85.50;100191.55;102956;1258;111560;-68
2023/06/14 02:37:21;;;;;;;15.00;9.00;;;;;;;13.15;85.43;100190.52;102848;1260;138792;-68
2023/06/14 02:39:48;;;;;;;11.20;7.40;;;;;;;13.14;85.30;100189.49;102970;1259;98332;-68
2023/06/14 02:42:15;;;;;;;9.90;7.90;;;;;;;13.14;85.35;100188.98;102872;1257;108800;-68
2023/06/14 02:44:43;;;;;;;10.20;7.50;;;;;;;13.15;85.52;100188.76;102898;1259;138493;-68
2023/06/14 02:47:10;;;;;;;11.60;8.50;;;;;;;13.18;85.65;100186.56;102917;1257;111490;-69
2023/06/14 02:49:38;;;;;;;10.60;7.50;;;;;;;13.17;85.56;100182.39;102848;1261;138898;-68
2023/06/14 02:52:06;;;;;;;14.20;8.10;;;;;;;13.18;85.38;100181.85;102947;1259;97808;-68
2023/06/14 02:54:33;;;;;;;10.90;7.80;;;;;;;13.18;85.50;100181.13;102964;1258;108815;-68
2023/06/14 02:57:01;;;;;;;10.60;8.40;;;;;;;13.19;85.62;100178.29;102948;1258;140213;-68
2023/06/14 02:59:28;;;;;;;10.80;8.00;;;;;;;13.20;85.70;100177.37;102944;1257;111735;-67
2023/06/14 03:01:56;;;;;;;11.90;7.90;;;;;;;13.22;85.81;100172.59;102728;1258;141532;-68
2023/06/14 03:04:25;;;;;;;9.40;7.70;;;;;;;13.25;85.77;100175.40;102933;1260;98247;-68
2023/06/14 03:06:53;;;;;;;11.00;8.30;;;;;;;13.25;85.60;100176.42;102940;1260;107121;-68
2023/06/14 03:09:20;;;;;;;11.40;7.80;;;;;;;13.26;85.59;100179.52;102916;1259;139876;-68
2023/06/14 03:11:48;;;;;;;8.70;7.40;;;;;;;13.28;85.68;100176.87;102960;1258;112930;-68
2023/06/14 03:14:17;;;;;;;9.60;8.60;;;;;;;13.31;85.88;100173.96;102792;1258;138518;-69
2023/06/14 03:16:45;;;;;;;10.70;7.60;;;;;;;13.35;85.84;100172.23;103141;1260;99471;-69
2023/06/14 03:19:12;;;;;;;10.00;8.40;;;;;;;13.34;85.67;100173.10;102923;1259;108623;-69
2023/06/14 03:21:44;;;;;;;12.20;8.00;;;;;;;13.34;85.35;100172.25;103068;1259;97818;-68
2023/06/14 03:24:12;;;;;;;10.40;8.20;;;;;;;13.35;85.45;100175.18;103071;1257;111171;-68
2023/06/14 03:26:40;;;;;;;13.10;8.80;;;;;;;13.36;85.42;100172.51;102867;1261;138727;-68
2023/06/14 03:29:08;;;;;;;12.20;8.80;;;;;;;13.37;85.46;100176.98;103088;1260;98318;-68
2023/06/14 03:31:37;;;;;;;17.60;12.30;;;;;;;13.37;85.44;100175.05;102973;1259;138712;-67
2023/06/14 03:34:04;;;;;;;13.80;9.00;;;;;;;13.37;85.36;100178.21;102944;1258;97667;-67
2023/06/14 03:36:33;;;;;;;15.40;11.10;;;;;;;13.37;85.20;100178.75;103685;1260;111449;-68
2023/06/14 03:39:01;;;;;;;11.70;8.50;;;;;;;13.37;85.26;100178.21;102855;1259;138843;-68
2023/06/14 03:41:28;;;;;;;10.30;8.90;;;;;;;13.38;85.41;100171.38;102965;1261;97798;-68
2023/06/14 03:43:56;;;;;;;12.70;8.90;;;;;;;13.38;85.25;100170.46;102850;1259;138772;-68
2023/06/14 03:46:23;;;;;;;12.30;8.40;;;;;;;13.38;85.19;100169.95;103045;1259;97883;-67
2023/06/14 03:48:50;;;;;;;9.20;8.20;;;;;;;13.40;85.11;100168.63;103032;1259;111600;-68
2023/06/14 03:51:18;;;;;;;10.80;7.80;;;;;;;13.43;85.12;100171.81;102758;1261;138511;-68
2023/06/14 03:53:46;;;;;;;10.70;8.20;;;;;;;13.46;85.25;100168.70;102908;1258;97840;-67
2023/06/14 03:56:33;;;;;;;10.50;7.70;;;;;;;13.51;85.31;100171.80;102770;1257;138518;-68
2023/06/14 03:59:05;;;;;;;13.60;7.90;;;;;;;13.55;85.31;100173.02;102889;1259;97790;-69
2023/06/14 04:01:33;;;;;;;10.90;8.20;;;;;;;13.59;85.32;100172.49;102971;1261;138641;-70
2023/06/14 04:04:01;;;;;;;12.30;8.20;;;;;;;13.63;85.41;100172.46;102917;1261;108925;-69
2023/06/14 04:06:32;;;;;;;11.60;7.90;;;;;;;13.66;84.97;100167.66;102899;1258;97802;-69
2023/06/14 04:09:02;;;;;;;14.20;8.00;;;;;;;13.69;84.94;100173.94;102907;1259;140085;-69
2023/06/14 04:11:30;;;;;;;11.60;7.90;;;;;;;13.77;84.96;100172.36;102830;1259;98403;-69
2023/06/14 04:13:58;;;;;;;11.70;7.90;;;;;;;13.85;85.04;100174.98;102988;1257;138640;-70
2023/06/14 04:16:26;;;;;;;10.60;8.10;;;;;;;13.90;84.38;100178.56;102880;1261;108958;-69
2023/06/14 04:18:54;;;;;;;9.00;7.30;;;;;;;13.95;84.17;100182.34;102887;1259;98225;-68
2023/06/14 04:21:23;;;;;;;9.60;7.60;;;;;;;14.02;84.19;100183.76;102787;1259;138424;-69
2023/06/14 04:23:55;;;;;;;10.90;7.90;;;;;;;14.08;83.89;100183.48;102947;1261;97673;-70
2023/06/14 04:26:29;;;;;;;9.70;7.60;;;;;;;14.13;83.87;100190.41;102955;1260;138515;-68
2023/06/14 04:29:01;;;;;;;11.40;7.70;;;;;;;14.21;83.96;100185.67;103075;1259;108798;-68
2023/06/14 04:31:33;;;;;;;10.70;7.90;;;;;;;14.27;83.71;100178.73;102996;1259;140371;-69
2023/06/14 04:34:05;;;;;;;8.60;7.40;;;;;;;14.29;83.23;100177.06;103028;1259;106978;-70
2023/06/14 04:36:36;;;;;;;13.00;7.30;;;;;;;14.32;83.16;100170.61;102998;1260;97740;-69
2023/06/14 04:39:06;;;;;;;10.80;7.60;;;;;;;14.36;83.08;100171.13;102740;1259;138537;-69
2023/06/14 04:41:34;;;;;;;15.10;7.60;;;;;;;14.41;83.08;100168.77;103040;1257;107293;-68
2023/06/14 04:44:03;;;;;;;10.10;7.00;;;;;;;14.46;82.91;100167.11;103333;1257;138862;-69
2023/06/14 04:46:45;;;;;;;10.20;7.20;;;;;;;14.53;82.80;100169.08;102988;1259;108519;-69
2023/06/14 04:49:17;;;;;;;10.50;7.40;;;;;;;14.59;82.53;100165.98;102931;1261;97900;-69
2023/06/14 04:51:46;;;;;;;10.50;7.20;;;;;;;14.66;82.32;100169.99;102901;1258;112143;-69
2023/06/14 04:54:14;;;;;;;10.60;7.30;;;;;;;14.71;82.11;100172.91;102745;1258;106781;-69
2023/06/14 04:56:42;;;;;;;9.20;7.10;;;;;;;14.73;81.72;100172.83;102787;1259;138992;-69
2023/06/14 04:59:12;;;;;;;11.70;7.30;;;;;;;14.74;81.61;100174.84;103048;1259;107110;-69
2023/06/14 05:01:40;;;;;;;10.60;7.60;;;;;;;14.76;81.12;100176.48;102868;1257;139265;-69
2023/06/14 05:04:07;;;;;;;9.90;7.00;;;;;;;14.78;81.17;100181.83;102932;1260;111278;-68
2023/06/14 05:06:36;;;;;;;12.10;7.60;;;;;;;14.78;81.02;100184.25;102785;1261;108444;-68
2023/06/14 05:09:03;;;;;;;10.50;7.40;;;;;;;14.80;81.33;100188.52;103030;1261;139441;-68
2023/06/14 05:11:31;;;;;;;10.40;7.10;;;;;;;14.87;81.77;100185.56;102983;1259;109007;-68
2023/06/14 05:13:59;;;;;;;10.20;7.70;;;;;;;14.93;81.53;100181.11;102796;1256;138837;-70
2023/06/14 05:16:27;;;;;;;12.40;7.50;;;;;;;14.98;81.31;100183.06;102908;1259;111498;-69
2023/06/14 05:18:55;;;;;;;10.60;7.60;;;;;;;15.01;80.93;100186.22;102905;1259;107684;-70
2023/06/14 05:21:22;;;;;;;12.40;7.50;;;;;;;15.02;80.70;100184.60;102806;1257;138704;-70
2023/06/14 05:23:50;;;;;;;8.40;7.50;;;;;;;15.02;80.64;100186.56;102897;1259;107672;-70
2023/06/14 05:26:23;;;;;;;12.10;8.70;;;;;;;15.01;80.52;100189.19;102837;1261;138586;-71
2023/06/14 05:28:52;;;;;;;11.30;7.90;;;;;;;15.01;80.44;100189.04;102954;1261;110538;-68
2023/06/14 05:31:19;;;;;;;13.00;7.20;;;;;;;15.01;80.42;100192.36;103125;1257;139955;-72
2023/06/14 05:33:47;;;;;;;10.90;8.00;;;;;;;15.01;80.45;100193.05;103028;1257;98910;-70
2023/06/14 05:36:14;;;;;;;12.70;7.60;;;;;;;15.03;80.37;100194.90;102905;1258;107796;-71
2023/06/14 05:38:41;;;;;;;9.30;7.50;;;;;;;15.05;80.35;100193.38;103346;1260;138814;-69
2023/06/14 05:41:09;;;;;;;9.20;7.30;;;;;;;15.07;80.41;100198.02;102997;1257;111593;-70
2023/06/14 05:43:36;;;;;;;8.90;8.00;;;;;;;15.10;80.35;100198.91;102798;1256;138636;-70
2023/06/14 05:46:03;;;;;;;15.60;8.80;;;;;;;15.14;80.12;100199.60;102941;1261;98645;-71
2023/06/14 05:48:31;;;;;;;11.30;8.00;;;;;;;15.17;80.18;100198.04;102929;1260;109427;-68
2023/06/14 05:51:01;;;;;;;9.80;8.30;;;;;;;15.21;79.98;100193.27;102816;1259;138600;-67
2023/06/14 05:53:29;;;;;;;11.60;8.00;;;;;;;15.23;79.88;100193.84;102983;1259;110659;-68
2023/06/14 05:55:56;;;;;;;12.80;8.50;;;;;;;15.25;79.83;100196.21;102854;1260;138914;-69
2023/06/14 05:58:24;;;;;;;17.40;8.40;;;;;;;15.31;79.98;100197.15;103001;1260;97734;-69
2023/06/14 06:00:53;;;;;;;11.30;7.30;;;;;;;15.37;80.24;100195.73;102880;1260;108563;-70
2023/06/14 06:03:20;;;;;;;12.50;8.60;;;;;;;15.50;80.25;100196.66;102782;1262;138955;-69
2023/06/14 06:05:49;;;;;;;14.40;8.70;;;;;;;15.60;80.01;100196.99;102893;1257;111387;-67
2023/06/14 06:08:17;;;;;;;10.30;7.60;;;;;;;15.72;79.86;100191.66;102835;1257;139060;-69
2023/06/14 06:10:44;;;;;;;10.90;8.30;;;;;;;15.83;79.76;100190.69;102960;1257;97791;-68
2023/06/14 06:13:12;;;;;;;13.20;8.40;;;;;;;15.96;79.43;100186.64;102894;1259;107370;-69
2023/06/14 06:15:39;;;;;;;15.60;8.00;;;;;;;16.10;79.10;100188.83;102867;1259;139978;-69
2023/06/14 06:18:07;;;;;;;16.30;8.00;;;;;;;16.28;79.10;100190.09;103023;1259;111761;-68
2023/06/14 06:20:36;;;;;;;13.00;8.30;;;;;;;16.51;78.98;100191.75;102904;1259;138776;-67
2023/06/14 06:23:03;;;;;;;12.50;7.80;;;;;;;16.73;78.41;100191.92;103389;1257;97802;-68
2023/06/14 06:25:31;;;;;;;12.10;8.70;;;;;;;16.91;77.85;100193.33;102771;1261;138643;-68
2023/06/14 06:27:59;;;;;;;12.50;7.60;;;;;;;17.05;77.18;100194.09;104416;1259;95926;-68
2023/06/14 06:30:26;;;;;;;18.30;7.70;;;;;;;17.16;76.77;100193.76;104055;1258;110707;-67
2023/06/14 06:32:55;;;;;;;13.50;7.50;;;;;;;17.28;76.44;100198.65;103104;1259;138802;-68
2023/06/14 06:35:23;;;;;;;11.10;6.60;;;;;;;17.37;75.71;100200.73;103413;1258;97718;-68
2023/06/14 06:37:50;;;;;;;10.30;6.40;;;;;;;17.40;75.16;100202.95;103003;1259;139313;-68
2023/06/14 06:40:18;;;;;;;10.20;7.00;;;;;;;17.46;74.94;100205.76;103148;1261;97788;-68
2023/06/14 06:42:45;;;;;;;8.90;7.30;;;;;;;17.53;74.60;100210.13;103032;1257;112233;-66
2023/06/14 06:45:13;;;;;;;14.70;7.30;;;;;;;17.58;74.07;100212.59;102865;1261;138582;-66
2023/06/14 06:47:41;;;;;;;17.00;7.00;;;;;;;17.64;73.60;100208.02;103576;1259;97291;-68
2023/06/14 06:50:10;;;;;;;14.00;7.20;;;;;;;17.85;73.40;100201.63;103184;1258;138778;-82
2023/06/14 06:52:37;;;;;;;29.70;8.90;;;;;;;18.15;72.74;100202.20;103555;1258;96697;-74
2023/06/14 06:55:05;;;;;;;17.20;7.70;;;;;;;18.42;71.95;100199.39;102976;1261;110773;-73
2023/06/14 06:57:32;;;;;;;12.20;7.00;;;;;;;18.56;71.37;100200.42;102839;1259;138519;-75
2023/06/14 07:00:00;;;;;;;12.30;7.00;;;;;;;18.62;70.79;100202.44;103039;1257;99604;-76
2023/06/14 07:02:28;;;;;;;12.00;7.40;;;;;;;18.62;70.00;100204.73;102848;1259;138651;-75
2023/06/14 07:04:55;;;;;;;12.30;7.60;;;;;;;18.57;70.09;100204.18;102952;1261;97808;-77
2023/06/14 07:07:23;;;;;;;14.50;7.30;;;;;;;18.54;69.75;100205.32;102896;1257;138943;-76
2023/06/14 07:09:50;;;;;;;13.70;7.40;;;;;;;18.46;69.53;100204.55;102983;1261;107875;-84
2023/06/14 07:12:18;;;;;;;17.70;7.10;;;;;;;18.31;69.32;100204.30;103070;1259;98463;-69
2023/06/14 07:14:45;;;;;;;11.20;7.00;;;;;;;18.20;69.23;100207.52;102904;1261;140064;-69
2023/06/14 07:17:12;;;;;;;46.30;8.60;;;;;;;18.12;69.60;100206.42;102910;1261;97853;-72
2023/06/14 07:19:40;;;;;;;13.20;7.20;;;;;;;18.10;69.93;100207.05;102883;1259;138957;-72
2023/06/14 07:22:08;;;;;;;10.50;7.00;;;;;;;18.15;69.91;100208.52;103788;1258;107569;-74
2023/06/14 07:24:37;;;;;;;10.70;7.30;;;;;;;18.21;69.95;100209.92;103742;1260;96919;-73
2023/06/14 07:27:04;;;;;;;13.70;6.90;;;;;;;18.27;69.59;100210.35;103833;1258;138589;-74
2023/06/14 07:29:31;;;;;;;12.50;7.00;;;;;;;18.32;69.60;100214.27;102788;1261;97856;-69
2023/06/14 07:31:59;;;;;;;13.30;7.10;;;;;;;18.40;69.37;100215.19;102997;1260;138704;-72
2023/06/14 07:34:27;;;;;;;18.30;8.00;;;;;;;18.43;69.05;100222.19;103243;1257;107676;-73
2023/06/14 07:36:54;;;;;;;13.40;7.50;;;;;;;18.47;68.68;100224.38;102811;1257;97923;-72
2023/06/14 07:39:23;;;;;;;10.90;7.60;;;;;;;18.56;68.95;100223.33;103217;1257;138497;-74
2023/06/14 07:41:50;;;;;;;14.70;7.10;;;;;;;18.67;68.64;100224.53;103336;1259;97830;-73
2023/06/14 07:44:18;;;;;;;16.40;7.40;;;;;;;18.81;68.46;100222.71;102861;1261;139466;-74
2023/06/14 07:46:45;;;;;;;12.90;7.00;;;;;;;19.08;68.37;100226.88;102860;1262;108479;-77
2023/06/14 07:49:13;;;;;;;9.00;6.70;;;;;;;19.51;68.23;100226.96;102942;1258;97975;-76
2023/06/14 07:51:41;;;;;;;11.00;6.90;;;;;;;20.00;67.67;100222.21;102896;1259;107318;-77
2023/06/14 07:54:08;;;;;;;10.80;7.00;;;;;;;20.29;65.81;100224.00;102951;1261;97770;-77
2023/06/14 07:56:36;;;;;;;12.80;6.90;;;;;;;20.39;65.54;100222.45;102826;1260;138187;-80
2023/06/14 07:59:03;;;;;;;10.20;7.20;;;;;;;20.45;65.06;100226.38;102916;1259;107664;-74
2023/06/14 08:01:30;;;;;;;10.20;7.40;;;;;;;20.50;64.94;100223.02;102883;1261;140777;-72
2023/06/14 08:03:58;;;;;;;13.70;7.00;;;;;;;20.53;64.44;100218.45;102859;1259;107709;-72
2023/06/14 08:06:26;;;;;;;14.20;6.80;;;;;;;20.49;63.95;100220.27;102901;1261;97792;-71
2023/06/14 08:08:53;;;;;;;10.90;6.40;;;;;;;20.46;63.93;100221.56;102768;1258;137953;-72
2023/06/14 08:11:20;;;;;;;12.10;6.30;;;;;;;20.48;63.69;100227.40;102920;1260;107463;-71
2023/06/14 08:13:48;;;;;;;16.60;6.20;;;;;;;20.52;63.19;100228.73;102909;1260;138110;-72
2023/06/14 08:16:15;;;;;;;10.60;6.30;;;;;;;20.54;62.78;100228.28;102991;1258;107688;-71
2023/06/14 08:18:43;;;;;;;9.70;5.80;;;;;;;20.56;62.89;100223.67;102955;1261;97856;-71
2023/06/14 08:21:10;;;;;;;7.00;5.70;;;;;;;20.56;62.80;100226.13;102931;1261;138285;-70
2023/06/14 08:23:38;;;;;;;12.30;6.40;;;;;;;20.58;62.64;100229.73;102950;1258;109658;-71
2023/06/14 08:26:06;;;;;;;9.70;6.10;;;;;;;20.54;61.74;100232.48;102846;1261;137960;-72
2023/06/14 08:28:33;;;;;;;7.40;5.10;;;;;;;20.47;60.30;100235.45;103025;1259;108908;-71
2023/06/14 08:31:01;;;;;;;12.50;6.40;;;;;;;20.38;59.98;100232.73;103056;1255;97877;-73
2023/06/14 08:33:29;;;;;;;9.80;5.50;;;;;;;20.28;59.66;100235.42;102939;1265;137899;-73
2023/06/14 08:35:56;;;;;;;10.30;5.90;;;;;;;20.14;59.82;100238.89;102898;1261;107000;-74
2023/06/14 08:38:25;;;;;;;11.30;6.30;;;;;;;20.08;60.18;100246.36;102864;1261;137980;-74
2023/06/14 08:40:53;;;;;;;9.50;5.00;;;;;;;20.07;60.39;100241.86;102930;1264;107689;-72
2023/06/14 08:43:21;;;;;;;8.50;5.10;;;;;;;20.09;60.29;100239.23;102865;1260;138000;-72
2023/06/14 08:45:50;;;;;;;12.40;5.40;;;;;;;20.11;60.25;100231.34;102865;1260;110507;-71
2023/06/14 08:48:20;;;;;;;9.20;5.10;;;;;;;20.16;60.35;100229.75;103023;1260;107286;-72
2023/06/14 08:50:47;;;;;;;10.60;5.30;;;;;;;20.20;60.09;100227.14;102860;1261;137837;-72
2023/06/14 08:53:20;;;;;;;12.20;5.40;;;;;;;20.27;60.28;100225.96;102978;1263;107099;-72
2023/06/14 08:55:48;;;;;;;7.40;5.50;;;;;;;20.39;60.10;100222.10;102790;1262;138129;-73
2023/06/14 08:58:17;;;;;;;12.00;5.40;;;;;;;20.50;59.94;100222.20;104452;1256;111011;-72
2023/06/14 09:00:45;;;;;;;10.70;5.50;;;;;;;20.65;60.03;100213.13;104366;1257;108764;-72
2023/06/14 09:03:14;;;;;;;12.30;5.70;;;;;;;20.83;59.88;100212.44;104297;1258;138034;-73
2023/06/14 09:05:45;;;;;;;10.60;6.40;;;;;;;21.01;59.38;100208.80;104364;1259;109860;-73
2023/06/14 09:08:12;;;;;;;10.80;6.20;;;;;;;21.13;58.93;100212.77;104297;1257;138707;-73
2023/06/14 09:10:40;;;;;;;15.00;6.20;;;;;;;21.22;58.58;100213.02;103589;1261;109816;-72
2023/06/14 09:13:10;;;;;;;11.60;6.20;;;;;;;21.31;58.45;100211.27;102984;1261;108701;-73
2023/06/14 09:15:37;;;;;;;10.90;5.60;;;;;;;21.45;58.00;100216.52;102905;1258;137915;-72
2023/06/14 09:18:05;;;;;;;8.80;5.60;;;;;;;21.55;58.03;100218.95;103026;1261;109021;-72
2023/06/14 09:20:33;;;;;;;7.60;5.50;;;;;;;21.67;58.17;100222.61;102968;1261;137891;-72
2023/06/14 09:23:01;;;;;;;10.90;5.20;;;;;;;21.81;57.59;100224.38;102953;1261;111649;-72
2023/06/14 09:25:28;;;;;;;8.90;6.20;;;;;;;21.94;57.17;100219.00;102862;1261;138204;-70
2023/06/14 09:28:09;;;;;;;12.40;5.80;;;;;;;22.07;57.04;100220.13;103054;1258;97854;-71
2023/06/14 09:30:37;;;;;;;11.90;6.00;;;;;;;22.16;56.71;100222.99;102991;1258;109298;-71
2023/06/14 09:33:04;;;;;;;14.00;5.90;;;;;;;22.12;56.41;100222.21;102876;1271;138238;-72
2023/06/14 09:35:33;;;;;;;14.00;6.00;;;;;;;22.10;56.23;100219.41;102977;1261;111262;-71
2023/06/14 09:38:01;;;;;;;14.20;6.60;;;;;;;22.04;55.89;100224.23;102891;1258;137982;-71
2023/06/14 09:40:29;;;;;;;10.70;6.70;;;;;;;21.91;55.92;100226.56;102918;1261;97823;-71
2023/06/14 09:42:57;;;;;;;8.50;6.10;;;;;;;21.81;55.83;100225.44;102888;1263;107803;-71
2023/06/14 09:45:29;;;;;;;10.40;6.10;;;;;;;21.71;56.11;100227.07;102963;1257;137767;-71
2023/06/14 09:47:58;;;;;;;11.70;6.50;;;;;;;21.62;56.11;100223.88;102979;1261;112307;-70
2023/06/14 09:50:28;;;;;;;8.00;5.90;;;;;;;21.53;56.42;100223.88;102937;1261;138415;-72
2023/06/14 09:53:03;;;;;;;11.60;5.70;;;;;;;21.45;56.29;100221.73;103033;1263;98202;-72
2023/06/14 09:55:32;;;;;;;11.40;5.60;;;;;;;21.34;56.25;100224.66;102902;1261;138130;-70
2023/06/14 09:58:05;;;;;;;6.50;5.50;;;;;;;21.26;56.28;100224.95;102961;1257;97715;-71
2023/06/14 10:00:34;;;;;;;11.50;5.20;;;;;;;21.14;56.34;100227.41;102970;1262;112172;-72
2023/06/14 10:03:05;;;;;;;8.50;5.30;;;;;;;21.07;56.41;100229.50;102670;1263;195233;-70
2023/06/14 10:05:35;;;;;;;11.10;4.70;;;;;;;21.09;56.10;100227.98;104416;1257;95858;-71
2023/06/14 10:08:08;;;;;;;10.50;4.80;;;;;;;21.17;55.73;100226.17;104267;1257;137771;-70
2023/06/14 10:10:36;;;;;;;12.00;5.10;;;;;;;21.27;55.56;100222.73;103055;1257;97822;-69
2023/06/14 10:13:03;;;;;;;8.50;5.10;;;;;;;21.42;55.27;100219.48;102883;1261;112489;-71
2023/06/14 10:15:38;;;;;;;9.70;4.70;;;;;;;21.57;54.98;100216.68;102880;1260;138088;-72
2023/06/14 10:18:20;;;;;;;11.00;5.50;;;;;;;21.79;54.69;100216.90;102859;1258;97869;-70
2023/06/14 10:20:56;;;;;;;9.50;4.90;;;;;;;21.95;54.54;100209.73;102948;1260;138106;-70
2023/06/14 10:23:27;;;;;;;9.10;5.10;;;;;;;22.18;54.01;100208.45;103129;1260;97827;-70
2023/06/14 10:25:59;;;;;;;11.20;4.80;;;;;;;22.51;53.58;100203.78;102827;1257;138036;-69
2023/06/14 10:28:27;;;;;;;9.80;4.10;;;;;;;22.87;53.32;100205.45;102928;1261;107915;-70
2023/06/14 10:31:08;;;;;;;8.60;4.30;;;;;;;23.18;52.20;100207.98;102935;1261;97800;-70
2023/06/14 10:33:37;;;;;;;6.90;4.10;;;;;;;23.44;51.55;100209.59;102854;1258;137404;-70
2023/06/14 10:36:30;;;;;;;10.10;4.50;;;;;;;23.96;51.27;100207.92;102924;1261;97907;-70
2023/06/14 10:39:05;;;;;;;11.10;4.00;;;;;;;24.30;49.23;100204.17;102829;1257;137927;-70
2023/06/14 10:41:36;;;;;;;12.00;4.70;;;;;;;24.33;48.61;100202.10;102896;1258;108326;-71
2023/06/14 10:44:34;;;;;;;10.90;4.30;;;;;;;24.30;47.89;100201.14;102885;1257;137974;-70
2023/06/14 10:47:02;;;;;;;5.50;4.20;;;;;;;24.14;47.94;100198.27;103134;1260;108529;-69
2023/06/14 10:49:42;;;;;;;13.30;4.50;;;;;;;24.10;48.17;100196.68;102858;1258;139800;-70
2023/06/14 10:52:18;;;;;;;10.70;4.50;;;;;;;24.03;47.88;100195.05;104023;1257;110770;-70
2023/06/14 10:55:18;;;;;;;6.70;4.40;;;;;;;23.91;47.50;100195.95;102944;1260;108205;-70
2023/06/14 10:57:51;;;;;;;7.10;3.70;;;;;;;23.78;47.82;100197.56;102972;1261;97879;-70
2023/06/14 11:00:24;;;;;;;8.50;3.70;;;;;;;23.79;47.26;100195.58;102979;1261;107986;-69
2023/06/14 11:03:14;;;;;;;7.50;3.80;;;;;;;23.91;47.08;100191.13;103349;1261;137950;-69
2023/06/14 11:05:52;;;;;;;5.60;4.00;;;;;;;24.08;46.80;100187.85;102931;1260;110709;-70
2023/06/14 11:08:57;;;;;;;7.30;4.00;;;;;;;24.04;46.06;100189.73;102892;1257;137810;-69
2023/06/14 11:11:30;;;;;;;8.80;4.10;;;;;;;23.89;45.48;100190.29;102969;1255;98177;-70
2023/06/14 11:13:58;;;;;;;6.40;3.40;;;;;;;23.78;45.41;100192.97;103189;1257;138059;-71